Flight Track Log - Related Links

Times and Time Zones

All times are in EDT time to prevent confusion due to time zone crossing. See the ASQ5240 flight status page for this flight to view local times or setup timezone preferences in your user account.

Time Position Orientation Groundspeed Altitude Reporting Facility
EDT Latitude Longitude Course Direction KTS MPH feet Rate Location/Type
Sun 12:48:21 PM 33.6500 -84.4667 284° West 174 200 2,600  Level Atlanta TRACON
Sun 12:49:21 PM 33.6667 -84.5500 284° West 248 285 4,200 2,150 Climbing Atlanta TRACON
Sun 12:50:21 PM 33.6833 -84.6333 284° West 272 313 6,900 2,800 Climbing Atlanta TRACON
Sun 12:51:21 PM 33.7000 -84.7167 284° West 276 318 9,800 2,111 Climbing Atlanta TRACON
Sun 12:53:40 PM 33.7239 -84.9681 277° West 328 377 13,900 1,719 Climbing Atlanta Center
Sun 12:54:40 PM 33.7481 -85.0831 284° West 342 394 15,500 1,600 Climbing Atlanta Center
Sun 12:55:40 PM 33.7658 -85.2083 280° West 364 419 17,100 1,900 Climbing Atlanta Center
Sun 12:56:40 PM 33.7853 -85.3311 281° West 373 429 19,300 2,050 Climbing Atlanta Center
Sun 12:57:40 PM 33.8069 -85.4514 282° West 373 429 21,200 1,750 Climbing Atlanta Center
Sun 12:58:40 PM 33.8264 -85.5767 281° West 373 429 22,800 1,250 Climbing Atlanta Center
Sun 12:59:40 PM 33.8603 -85.7050 288° West 385 443 23,700 1,150 Climbing Atlanta Center
Sun 01:00:40 PM 33.8964 -85.8131 292° West 402 463 25,100 1,467 Climbing Atlanta Center
Sun 01:02:40 PM 33.9758 -86.0703 290° West 407 468 28,100 1,500 Climbing Atlanta Center
Sun 01:03:40 PM 34.0111 -86.1989 288° West 407 468 29,600 1,200 Climbing Atlanta Center
Sun 01:04:40 PM 34.0483 -86.3303 289° West 407 468 30,500 750 Climbing Atlanta Center
Sun 01:05:40 PM 34.0875 -86.4642 289° West 412 474 31,100 550 Climbing Atlanta Center
Sun 01:06:40 PM 34.1244 -86.6033 288° West 417 480 31,600 509 Climbing Atlanta Center
Sun 01:07:26 PM 34.1592 -86.7275 289° West 431 496 32,000 509 Climbing Memphis Center
Sun 01:08:26 PM 34.1989 -86.8767 288° West 463 533 32,500 600 Climbing Memphis Center
Sun 01:09:26 PM 34.2406 -87.0206 289° West 464 534 33,200 375 Climbing Memphis Center
Sun 01:11:00 PM 34.2857 -87.2289 289° West  Level FlightAware Approximate
Sun 01:12:26 PM 34.3644 -87.4686 289° West 474 545 34,000  Level Memphis Center
Sun 01:13:27 PM 34.4033 -87.6183 288° West 474 545 34,000  Level Memphis Center
Sun 01:14:26 PM 34.4442 -87.7681 288° West 468 539 34,000  Level Memphis Center
Sun 01:15:26 PM 34.4825 -87.9181 287° West 473 544 34,000 -350 Level Memphis Center
Sun 01:16:26 PM 34.5272 -88.0706 290° West 478 550 33,300 -1,050 Descending Memphis Center
Sun 01:17:26 PM 34.5589 -88.2086 286° West 478 550 31,900 -1,400 Descending Memphis Center
Sun 01:18:26 PM 34.5967 -88.3539 288° West 470 541 30,500 -950 Descending Memphis Center
Sun 01:19:26 PM 34.6389 -88.5094 288° West 453 521 30,000 -250 Descending Memphis Center
Sun 01:20:26 PM 34.6761 -88.6425 289° West 448 516 30,000  Level Memphis Center
Sun 01:21:26 PM 34.7117 -88.7883 287° West 448 516 30,000  Level Memphis Center
Sun 01:23:26 PM 34.7878 -89.0750 288° West 454 522 30,000  Level Memphis Center
Sun 01:24:26 PM 34.8247 -89.2186 287° West 454 522 30,000  Level Memphis Center
Sun 01:25:26 PM 34.8614 -89.3625 287° West 454 522 30,000  Level Memphis Center
Sun 01:26:26 PM 34.8981 -89.5064 287° West 447 514 30,000  Level Memphis Center
Sun 01:28:26 PM 34.9769 -89.7969 288° West 455 524 30,000  Level Memphis Center
Sun 01:29:26 PM 35.0108 -89.9489 285° West 460 529 30,000  Level Memphis Center
Sun 01:30:26 PM 35.0508 -90.0883 289° West 454 522 30,000  Level Memphis Center
Sun 01:31:26 PM 35.0969 -90.2328 291° West 449 517 30,000  Level Memphis Center
Sun 01:32:26 PM 35.1408 -90.3747 291° West 449 517 30,000  Level Memphis Center
Sun 01:33:26 PM 35.1844 -90.5172 291° West 449 517 30,000  Level Memphis Center
Sun 01:34:26 PM 35.2344 -90.6747 291° West 454 522 30,000  Level Memphis Center
Sun 01:35:26 PM 35.2778 -90.8150 291° West 454 522 30,000  Level Memphis Center
Sun 01:36:26 PM 35.3208 -90.9603 290° West 448 516 30,000  Level Memphis Center
Sun 01:37:26 PM 35.3558 -91.0725 291° West 448 516 30,000  Level Memphis Center
Sun 01:38:26 PM 35.4069 -91.2258 292° West 448 516 30,000  Level Memphis Center
Sun 01:39:26 PM 35.4517 -91.3817 289° West 448 516 30,000  Level Memphis Center
Sun 01:40:26 PM 35.4881 -91.5044 290° West 442 509 30,000  Level Memphis Center
Sun 01:41:26 PM 35.5306 -91.6378 291° West 437 503 30,000  Level Memphis Center
Sun 01:42:26 PM 35.5731 -91.7789 290° West 432 497 30,000  Level Memphis Center
Sun 01:43:26 PM 35.6131 -91.9147 290° West 432 497 30,000  Level Memphis Center
Sun 01:44:26 PM 35.6550 -92.0536 290° West 432 497 30,000  Level Memphis Center
Sun 01:45:26 PM 35.6967 -92.1975 290° West 438 504 30,000  Level Memphis Center
Sun 01:47:26 PM 35.7800 -92.4731 291° West 438 504 30,000  Level Memphis Center
Sun 01:48:26 PM 35.8192 -92.6150 289° West 433 498 30,000  Level Memphis Center
Sun 01:49:26 PM 35.8606 -92.7519 290° West 433 498 30,000  Level Memphis Center
Sun 01:50:26 PM 35.8994 -92.8889 289° West 433 498 30,000  Level Memphis Center
Sun 01:51:26 PM 35.9381 -93.0336 288° West 433 498 30,000  Level Memphis Center
Sun 01:52:26 PM 35.9789 -93.1658 291° West 427 491 30,000  Level Memphis Center
Sun 01:53:26 PM 36.0175 -93.3056 289° West 427 491 30,000  Level Memphis Center
Sun 01:54:27 PM 36.0578 -93.4456 290° West 433 498 30,000  Level Memphis Center
Sun 01:55:26 PM 36.0961 -93.5808 289° West 433 498 30,000  Level Memphis Center
Sun 01:56:26 PM 36.1364 -93.7211 290° West 433 498 30,000  Level Memphis Center
Sun 01:57:26 PM 36.1736 -93.8742 287° West 433 498 30,000  Level Memphis Center
Sun 01:58:26 PM 36.2133 -94.0175 289° West 433 498 30,000  Level Memphis Center
Sun 01:59:27 PM 36.2494 -94.1375 290° West 427 491 30,000  Level Memphis Center
Sun 02:01:21 PM 36.3633 -94.3861 300° West 424 488 30,000  Level Kansas City Center
Sun 02:02:23 PM 36.4217 -94.5158 299° West 427 491 30,000  Level Kansas City Center
Sun 02:03:25 PM 36.4789 -94.6461 299° West 429 494 30,000  Level Kansas City Center
Sun 02:04:27 PM 36.5483 -94.8025 299° West 430 495 30,000 -242 Level Kansas City Center
Sun 02:05:29 PM 36.6053 -94.9317 299° West 430 495 29,500 -726 Descending Kansas City Center
Sun 02:06:31 PM 36.6603 -95.0569 299° West 424 488 28,500 -968 Descending Kansas City Center
Sun 02:07:33 PM 36.7142 -95.1797 299° West 414 476 27,500 -960 Descending Kansas City Center
Sun 02:08:36 PM 36.7669 -95.3031 298° West 408 470 26,500 -1,056 Descending Kansas City Center
Sun 02:09:38 PM 36.8300 -95.4497 298° West 404 465 25,300 -1,065 Descending Kansas City Center
Sun 02:10:40 PM 36.8817 -95.5744 297° West 406 467 24,300 -629 Descending Kansas City Center
Sun 02:11:42 PM 36.9339 -95.6956 298° West 403 464 24,000 -145 Descending Kansas City Center
Sun 02:12:44 PM 36.9850 -95.8175 298° West 400 460 24,000  Level Kansas City Center
Sun 02:13:46 PM 37.0369 -95.9414 298° West 400 460 24,000  Level Kansas City Center
Sun 02:14:48 PM 37.0900 -96.0669 298° West 404 465 24,000 -1,097 Level Kansas City Center
Sun 02:16:00 PM 37.1458 -96.2265 298° West  Level FlightAware Approximate
Sun 02:16:52 PM 37.2069 -96.3500 298° West 414 476 20,600  Level Kansas City Center
Sun 02:17:54 PM 37.2569 -96.4708 297° West 408 470 18,000 -2,439 Descending Kansas City Center
Sun 02:18:55 PM 37.3053 -96.5839 298° West 386 444 15,600 -2,390 Descending Kansas City Center
Sun 02:19:57 PM 37.3497 -96.6950 297° West 366 421 13,100 -2,032 Descending Kansas City Center
Sun 02:20:59 PM 37.3894 -96.8067 294° West 358 412 11,400 -1,065 Descending Kansas City Center
Sun 02:22:01 PM 37.3900 -96.9253 270° West 334 384 10,900 -1,161 Descending Kansas City Center
Sun 02:23:03 PM 37.3981 -97.0483 275° West 298 343 9,000 -1,969 Descending Kansas City Center
Sun 02:24:12 PM 37.4019 -97.1617 273° West 281 323 6,600 -1,814 Descending Kansas City Center
Sun 02:25:12 PM 37.4275 -97.2497 290° West 266 306 5,100 -1,140 Descending Kansas City Center
Sun 02:26:13 PM 37.4664 -97.3228 304° West 248 285 4,300 -818 Descending Kansas City Center
Sun 02:28:08 PM 37.5503 -97.4286 315° West 207 238 2,700 -593 Descending Kansas City Center
Sun 02:29:15 PM 37.5869 -97.4511 334° Northwest 193 222 2,500 -512 Descending Kansas City Center
Sun 02:30:17 PM 37.6292 -97.4322 20° North 153 176 1,600 -871 Descending Kansas City Center
Sun 02:32:00 PM 37.6499 -97.4331 358° North  Level Estimated
Sun 02:39:00 PM 37.6499 -97.4331 38° Northeast  Level Estimated

Login

Don't have an account? Register now (free) for customized features, flight alerts, and more!